createdAt,value
2023-02-16T00:02:16.563Z,2.84
2023-02-16T00:04:50.800Z,2.77
2023-02-16T00:07:24.599Z,2.70
2023-02-16T00:09:58.400Z,2.66
2023-02-16T00:12:49.764Z,2.63
2023-02-16T00:15:34.599Z,2.63
2023-02-16T00:18:18.652Z,2.64
2023-02-16T00:20:53.012Z,2.62
2023-02-16T00:23:26.436Z,2.62
2023-02-16T00:26:22.153Z,2.60
2023-02-16T00:28:59.140Z,2.54
2023-02-16T00:31:33.377Z,2.50
2023-02-16T00:34:35.083Z,2.46
2023-02-16T00:37:19.555Z,2.42
2023-02-16T00:39:55.303Z,2.36
2023-02-16T00:42:33.813Z,2.35
2023-02-16T00:45:22.197Z,2.36
2023-02-16T00:47:57.567Z,2.34
2023-02-16T00:50:34.380Z,2.28
2023-02-16T00:53:18.459Z,2.24
2023-02-16T00:55:56.578Z,2.20
2023-02-16T00:58:34.045Z,2.14
2023-02-16T01:01:15.269Z,2.13
2023-02-16T01:03:49.625Z,2.11
2023-02-16T01:06:40.720Z,2.08
2023-02-16T01:09:35.823Z,2.10
2023-02-16T01:12:15.989Z,2.13
2023-02-16T01:14:53.039Z,2.17
2023-02-16T01:17:29.201Z,2.21
2023-02-16T01:20:02.747Z,2.26
2023-02-16T01:22:36.741Z,2.29
2023-02-16T01:25:15.035Z,2.31
2023-02-16T01:27:49.532Z,2.31
2023-02-16T01:30:25.050Z,2.30
2023-02-16T01:32:58.693Z,2.30
2023-02-16T01:35:36.516Z,2.30
2023-02-16T01:38:18.581Z,2.32
2023-02-16T01:41:02.617Z,2.30
2023-02-16T01:43:46.999Z,2.30
2023-02-16T01:46:27.778Z,2.29
2023-02-16T01:49:03.143Z,2.25
2023-02-16T01:51:44.577Z,2.21
2023-02-16T01:54:29.162Z,2.18
2023-02-16T01:57:08.054Z,2.17
2023-02-16T02:00:06.747Z,2.16
2023-02-16T02:02:51.275Z,2.15
2023-02-16T02:05:37.236Z,2.16
2023-02-16T02:08:19.066Z,2.17
2023-02-16T02:11:03.247Z,2.17
2023-02-16T02:13:47.179Z,2.16
2023-02-16T02:16:23.574Z,2.15
2023-02-16T02:18:58.096Z,2.15
2023-02-16T02:22:15.439Z,2.15
2023-02-16T02:25:24.542Z,2.15
2023-02-16T02:28:04.683Z,2.14
2023-02-16T02:30:49.659Z,2.15
2023-02-16T02:33:38.498Z,2.16
2023-02-16T02:36:24.089Z,2.15
2023-02-16T02:39:05.926Z,2.14
2023-02-16T02:42:07.512Z,2.13
2023-02-16T02:44:55.169Z,2.15
2023-02-16T02:47:41.612Z,2.17
2023-02-16T02:51:10.506Z,2.19
2023-02-16T02:53:49.450Z,2.21
2023-02-16T02:56:42.245Z,2.22
2023-02-16T02:59:33.850Z,2.21
2023-02-16T03:02:08.313Z,2.18
2023-02-16T03:04:53.700Z,2.14
2023-02-16T03:07:47.239Z,2.11
2023-02-16T03:10:42.375Z,2.10
2023-02-16T03:13:26.374Z,2.11
2023-02-16T03:16:04.063Z,2.12
2023-02-16T03:19:16.240Z,2.12
2023-02-16T03:22:20.072Z,2.10
2023-02-16T03:25:20.639Z,2.05
2023-02-16T03:28:14.954Z,1.94
2023-02-16T03:30:49.535Z,1.80
2023-02-16T03:33:24.275Z,1.71
2023-02-16T03:36:12.129Z,1.65
2023-02-16T03:38:46.122Z,1.63
2023-02-16T03:41:20.100Z,1.65
2023-02-16T03:43:54.459Z,1.70
2023-02-16T03:46:30.605Z,1.74
2023-02-16T03:49:04.738Z,1.77
2023-02-16T03:51:41.803Z,1.78
2023-02-16T03:54:15.456Z,1.79
2023-02-16T03:56:49.327Z,1.79
2023-02-16T03:59:23.249Z,1.81
2023-02-16T04:01:56.806Z,1.84
2023-02-16T04:04:31.121Z,1.87
2023-02-16T04:07:05.159Z,1.86
2023-02-16T04:09:38.760Z,1.86
2023-02-16T04:12:30.639Z,1.87
2023-02-16T04:15:04.521Z,1.88
2023-02-16T04:17:41.627Z,1.89
2023-02-16T04:20:19.304Z,1.89
2023-02-16T04:23:03.064Z,1.90
2023-02-16T04:25:37.429Z,1.93
2023-02-16T04:28:11.172Z,1.95
2023-02-16T04:30:55.066Z,1.96
2023-02-16T04:33:28.892Z,1.94
2023-02-16T04:36:02.210Z,1.88
2023-02-16T04:38:36.888Z,1.80
2023-02-16T04:41:10.738Z,1.78
2023-02-16T04:43:44.405Z,1.77
2023-02-16T04:46:19.575Z,1.78
2023-02-16T04:49:13.896Z,1.82
2023-02-16T04:51:47.960Z,1.86
2023-02-16T04:54:33.337Z,1.89
2023-02-16T04:57:07.643Z,1.90
2023-02-16T04:59:42.111Z,1.90
2023-02-16T05:02:15.816Z,1.89
2023-02-16T05:04:49.827Z,1.88
2023-02-16T05:07:44.414Z,1.88
2023-02-16T05:10:18.818Z,1.90
2023-02-16T05:13:10.400Z,1.90
2023-02-16T05:15:45.439Z,1.90
2023-02-16T05:18:18.814Z,1.90
2023-02-16T05:21:21.062Z,1.91
2023-02-16T05:23:55.095Z,1.90
2023-02-16T05:26:32.549Z,1.88
2023-02-16T05:29:07.044Z,1.85
2023-02-16T05:31:41.196Z,1.83
2023-02-16T05:34:15.258Z,1.84
2023-02-16T05:37:00.044Z,1.86
2023-02-16T05:39:44.847Z,1.88
2023-02-16T05:42:30.526Z,1.89
2023-02-16T05:45:07.562Z,1.89
2023-02-16T05:47:41.313Z,1.89
2023-02-16T05:50:15.709Z,1.88
2023-02-16T05:52:49.324Z,1.87
2023-02-16T05:55:23.102Z,1.87
2023-02-16T05:57:56.439Z,1.88
2023-02-16T06:00:34.172Z,1.90
2023-02-16T06:03:10.565Z,1.94
2023-02-16T06:06:05.319Z,1.99
2023-02-16T06:08:40.044Z,2.03
2023-02-16T06:11:27.689Z,2.07
2023-02-16T06:14:03.304Z,2.11
2023-02-16T06:16:37.894Z,2.15
2023-02-16T06:19:11.783Z,2.20
2023-02-16T06:21:49.190Z,2.24
2023-02-16T06:24:22.991Z,2.29
2023-02-16T06:26:57.331Z,2.35
2023-02-16T06:29:31.160Z,2.44
2023-02-16T06:32:08.193Z,2.46
2023-02-16T06:34:42.358Z,2.47
2023-02-16T06:37:16.397Z,2.51
2023-02-16T06:39:50.406Z,2.54
2023-02-16T06:42:23.993Z,2.60
2023-02-16T06:44:57.543Z,2.66
2023-02-16T06:47:31.121Z,2.70
2023-02-16T06:50:05.565Z,2.74
2023-02-16T06:52:39.303Z,2.79
2023-02-16T06:55:13.703Z,2.84
2023-02-16T06:57:47.024Z,2.91
2023-02-16T07:00:21.799Z,2.99
2023-02-16T07:02:55.274Z,3.09
2023-02-16T07:05:29.088Z,3.22
2023-02-16T07:08:03.271Z,3.35
2023-02-16T07:10:57.175Z,3.45
2023-02-16T07:13:31.254Z,3.53
2023-02-16T07:16:05.698Z,3.55
2023-02-16T07:18:39.623Z,3.62
2023-02-16T07:21:16.904Z,3.76
2023-02-16T07:23:50.766Z,3.95
2023-02-16T07:26:24.372Z,4.17
2023-02-16T07:28:58.053Z,4.40
2023-02-16T07:31:31.981Z,4.62
2023-02-16T07:34:05.770Z,4.81
2023-02-16T07:36:39.773Z,4.97
2023-02-16T07:39:13.295Z,5.08
2023-02-16T07:41:50.166Z,5.19
2023-02-16T07:44:25.295Z,5.32
2023-02-16T07:46:59.077Z,5.44
2023-02-16T07:49:33.235Z,5.56
2023-02-16T07:52:07.270Z,5.67
2023-02-16T07:54:41.102Z,5.89
2023-02-16T07:57:14.938Z,6.25
2023-02-16T07:59:49.189Z,6.77
2023-02-16T08:02:27.898Z,7.52
2023-02-16T08:05:02.217Z,8.11
2023-02-16T08:07:35.646Z,8.63
2023-02-16T08:10:10.927Z,9.22
2023-02-16T08:12:44.898Z,9.76
2023-02-16T08:15:19.251Z,10.08
2023-02-16T08:17:53.056Z,10.38
2023-02-16T08:20:45.127Z,10.74
2023-02-16T08:23:31.855Z,11.00
2023-02-16T08:26:11.452Z,11.02
2023-02-16T08:28:46.326Z,10.92
2023-02-16T08:31:23.566Z,10.74
2023-02-16T08:34:03.394Z,10.42
2023-02-16T08:36:38.981Z,10.16
2023-02-16T08:39:35.712Z,9.99
2023-02-16T08:42:13.144Z,9.86
2023-02-16T08:44:47.509Z,9.80
2023-02-16T08:47:21.891Z,9.64
2023-02-16T08:49:55.874Z,9.48
2023-02-16T08:52:30.117Z,9.27
2023-02-16T08:55:03.907Z,9.07
2023-02-16T08:57:38.481Z,8.86
2023-02-16T09:00:36.201Z,8.80
2023-02-16T09:03:10.476Z,8.80
2023-02-16T09:05:47.085Z,8.85
2023-02-16T09:08:22.054Z,8.87
2023-02-16T09:11:08.963Z,8.74
2023-02-16T09:14:04.145Z,8.63
2023-02-16T09:16:47.363Z,8.62
2023-02-16T09:19:43.834Z,8.67
2023-02-16T09:22:39.595Z,8.65
2023-02-16T09:25:14.043Z,8.67
2023-02-16T09:27:51.655Z,8.67
2023-02-16T09:30:28.334Z,8.68
2023-02-16T09:33:02.505Z,8.77
2023-02-16T09:35:57.169Z,8.92
2023-02-16T09:38:30.729Z,8.93
2023-02-16T09:41:19.150Z,8.96
2023-02-16T09:43:57.804Z,9.03
2023-02-16T09:46:33.226Z,8.99
2023-02-16T09:49:08.818Z,8.93
2023-02-16T09:51:46.268Z,8.94
2023-02-16T09:54:35.021Z,9.02
2023-02-16T09:57:34.702Z,9.02
2023-02-16T10:00:15.496Z,9.00
2023-02-16T10:02:55.088Z,9.06
2023-02-16T10:05:36.467Z,9.16
2023-02-16T10:08:15.004Z,9.19
2023-02-16T10:10:55.305Z,9.14
2023-02-16T10:13:41.742Z,9.13
2023-02-16T10:16:24.490Z,9.21
2023-02-16T10:19:03.886Z,9.28
2023-02-16T10:21:38.034Z,9.27
2023-02-16T10:24:14.992Z,9.34
2023-02-16T10:26:53.082Z,9.38
2023-02-16T10:29:47.192Z,9.44
2023-02-16T10:32:31.431Z,9.51
2023-02-16T10:35:23.514Z,9.60
2023-02-16T10:38:07.086Z,9.79
2023-02-16T10:40:51.174Z,10.15
2023-02-16T10:43:39.473Z,10.84
2023-02-16T10:46:16.689Z,11.61
2023-02-16T10:48:54.662Z,12.22
2023-02-16T10:51:33.612Z,12.73
2023-02-16T10:54:12.577Z,13.09
2023-02-16T10:56:54.578Z,13.31
2023-02-16T10:59:38.907Z,13.53
2023-02-16T11:02:25.349Z,13.60
2023-02-16T11:05:26.570Z,13.79
2023-02-16T11:08:02.671Z,14.27
2023-02-16T11:10:42.906Z,14.41
2023-02-16T11:13:27.706Z,14.41
2023-02-16T11:16:07.271Z,14.50
2023-02-16T11:19:05.363Z,14.87
2023-02-16T11:21:51.252Z,15.12
2023-02-16T11:24:30.857Z,15.10
2023-02-16T11:27:25.378Z,15.22
2023-02-16T11:30:22.997Z,15.56
2023-02-16T11:33:01.269Z,15.92
2023-02-16T11:35:47.403Z,16.10
2023-02-16T11:38:38.282Z,16.27
2023-02-16T11:41:26.357Z,16.45
2023-02-16T11:44:04.471Z,16.75
2023-02-16T11:46:44.227Z,17.11
2023-02-16T11:49:40.222Z,17.27
2023-02-16T11:52:32.271Z,17.37
2023-02-16T11:55:06.572Z,17.49
2023-02-16T11:57:43.646Z,17.26
2023-02-16T12:00:23.533Z,16.94
2023-02-16T12:03:18.551Z,16.83
2023-02-16T12:06:08.448Z,16.81
2023-02-16T12:09:00.364Z,16.92
2023-02-16T12:12:03.396Z,17.06
2023-02-16T12:14:49.201Z,16.93
2023-02-16T12:17:42.744Z,16.77
2023-02-16T12:20:32.463Z,16.39
2023-02-16T12:23:20.516Z,16.01
2023-02-16T12:26:06.509Z,15.70
2023-02-16T12:28:50.365Z,15.39
2023-02-16T12:31:31.618Z,15.20
2023-02-16T12:34:22.929Z,15.21
2023-02-16T12:37:06.515Z,15.23
2023-02-16T12:39:51.766Z,15.17
2023-02-16T12:42:41.395Z,15.02
2023-02-16T12:45:19.624Z,14.79
2023-02-16T12:47:57.769Z,14.80
2023-02-16T12:50:34.119Z,14.91
2023-02-16T12:53:22.442Z,14.97
2023-02-16T12:56:01.641Z,15.01
2023-02-16T12:58:39.624Z,14.99
2023-02-16T13:01:19.308Z,14.85
2023-02-16T13:03:59.002Z,14.74
2023-02-16T13:06:40.647Z,14.66
2023-02-16T13:09:25.853Z,14.54
2023-02-16T13:12:03.682Z,14.43
2023-02-16T13:14:43.805Z,14.42
2023-02-16T13:17:22.983Z,14.62
2023-02-16T13:19:57.408Z,14.83
2023-02-16T13:22:56.355Z,14.79
2023-02-16T13:25:49.476Z,14.71
2023-02-16T13:28:48.326Z,14.76
2023-02-16T13:31:33.451Z,14.83
2023-02-16T13:34:49.055Z,14.72
2023-02-16T13:37:33.705Z,14.71
2023-02-16T13:40:54.014Z,14.78
2023-02-16T13:43:35.804Z,14.71
2023-02-16T13:46:16.090Z,14.48
2023-02-16T13:48:54.980Z,14.28
2023-02-16T13:51:31.323Z,14.31
2023-02-16T13:54:06.804Z,14.41
2023-02-16T13:56:44.009Z,14.32
2023-02-16T14:00:00.480Z,14.14
2023-02-16T14:02:56.298Z,13.98
2023-02-16T14:05:41.348Z,13.76
2023-02-16T14:08:24.647Z,13.50
2023-02-16T14:11:04.316Z,13.28
2023-02-16T14:13:52.563Z,13.05
2023-02-16T14:16:40.421Z,12.89
2023-02-16T14:19:26.466Z,12.71
2023-02-16T14:22:11.662Z,12.50
2023-02-16T14:24:52.814Z,12.25
2023-02-16T14:27:48.188Z,12.01
2023-02-16T14:30:52.417Z,11.79
2023-02-16T14:33:40.795Z,11.58
2023-02-16T14:36:19.331Z,11.37
2023-02-16T14:38:58.778Z,11.17
2023-02-16T14:41:35.149Z,11.02
2023-02-16T14:44:34.846Z,10.90
2023-02-16T14:47:22.911Z,10.80
2023-02-16T14:50:16.057Z,10.68
2023-02-16T14:53:16.840Z,10.53
2023-02-16T14:56:19.898Z,10.41
2023-02-16T14:59:07.086Z,10.29
2023-02-16T15:01:48.519Z,10.20
2023-02-16T15:04:35.696Z,10.12
2023-02-16T15:07:09.776Z,10.03
2023-02-16T15:09:45.670Z,9.97
2023-02-16T15:12:25.939Z,9.91
2023-02-16T15:15:03.480Z,9.82
2023-02-16T15:17:40.845Z,9.73
2023-02-16T15:20:35.577Z,9.62
2023-02-16T15:23:19.357Z,9.50
2023-02-16T15:26:02.760Z,9.40
2023-02-16T15:28:38.780Z,9.36
2023-02-16T15:31:24.081Z,9.30
2023-02-16T15:34:12.734Z,9.24
2023-02-16T15:36:48.638Z,9.18
2023-02-16T15:39:43.690Z,9.10
2023-02-16T15:42:27.573Z,9.03
2023-02-16T15:44:59.726Z,8.97
2023-02-16T15:47:35.731Z,8.89
2023-02-16T15:50:20.627Z,8.81
2023-02-16T15:53:00.583Z,8.74
2023-02-16T15:55:43.606Z,8.68
2023-02-16T15:58:19.866Z,8.63
2023-02-16T16:00:58.430Z,8.58
2023-02-16T16:03:47.054Z,8.53
2023-02-16T16:06:23.830Z,8.47
2023-02-16T16:09:01.210Z,8.43
2023-02-16T16:11:36.017Z,8.38
2023-02-16T16:14:16.903Z,8.32
2023-02-16T16:16:51.946Z,8.27
2023-02-16T16:19:34.057Z,8.22
2023-02-16T16:22:43.413Z,8.16
2023-02-16T16:25:45.550Z,8.13
2023-02-16T16:28:39.975Z,8.10
2023-02-16T16:31:18.310Z,8.07
2023-02-16T16:34:02.977Z,8.04
2023-02-16T16:36:50.294Z,7.98
2023-02-16T16:39:31.541Z,7.95
2023-02-16T16:42:22.159Z,7.93
2023-02-16T16:45:36.484Z,7.90
2023-02-16T16:48:20.238Z,7.86
2023-02-16T16:51:13.513Z,7.83
2023-02-16T16:54:40.531Z,7.82
2023-02-16T16:57:19.188Z,7.83
2023-02-16T16:59:55.605Z,7.83
2023-02-16T17:02:34.269Z,7.83
2023-02-16T17:05:28.769Z,7.83
2023-02-16T17:08:29.548Z,7.80
2023-02-16T17:11:10.107Z,7.77
2023-02-16T17:13:50.247Z,7.71
2023-02-16T17:16:30.250Z,7.67
2023-02-16T17:19:28.465Z,7.62
2023-02-16T17:22:23.350Z,7.57
2023-02-16T17:24:58.856Z,7.53
2023-02-16T17:27:37.792Z,7.49
2023-02-16T17:30:20.487Z,7.46
2023-02-16T17:32:57.123Z,7.42
2023-02-16T17:35:34.698Z,7.40
2023-02-16T17:38:21.430Z,7.36
2023-02-16T17:41:03.283Z,7.31
2023-02-16T17:43:39.717Z,7.28
2023-02-16T17:46:28.730Z,7.24
2023-02-16T17:49:07.597Z,7.23
2023-02-16T17:52:05.521Z,7.22
2023-02-16T17:54:44.112Z,7.22
2023-02-16T17:57:26.697Z,7.19
2023-02-16T18:00:05.417Z,7.17
2023-02-16T18:02:42.304Z,7.14
2023-02-16T18:05:18.058Z,7.11
2023-02-16T18:07:57.264Z,7.08
2023-02-16T18:10:40.308Z,7.07
2023-02-16T18:13:17.835Z,7.04
2023-02-16T18:15:57.114Z,7.04
2023-02-16T18:18:40.601Z,7.03
2023-02-16T18:21:18.235Z,7.01
2023-02-16T18:23:55.962Z,6.98
2023-02-16T18:26:35.696Z,6.97
2023-02-16T18:29:15.318Z,6.94
2023-02-16T18:31:54.345Z,6.92
2023-02-16T18:34:40.702Z,6.91
2023-02-16T18:37:26.752Z,6.91
2023-02-16T18:40:05.465Z,6.91
2023-02-16T18:42:46.586Z,6.88
2023-02-16T18:45:30.017Z,6.86
2023-02-16T18:48:08.766Z,6.83
2023-02-16T18:50:49.713Z,6.79
2023-02-16T18:53:25.515Z,6.75
2023-02-16T18:56:30.625Z,6.71
2023-02-16T18:59:09.837Z,6.69
2023-02-16T19:01:46.246Z,6.68
2023-02-16T19:04:26.111Z,6.66
2023-02-16T19:07:03.496Z,6.64
2023-02-16T19:09:42.623Z,6.60
2023-02-16T19:12:32.510Z,6.56
2023-02-16T19:15:11.556Z,6.54
2023-02-16T19:17:51.467Z,6.50
2023-02-16T19:20:38.252Z,6.47
2023-02-16T19:23:16.842Z,6.46
2023-02-16T19:25:55.832Z,6.45
2023-02-16T19:28:33.543Z,6.45
2023-02-16T19:31:19.372Z,6.43
2023-02-16T19:33:57.899Z,6.41
2023-02-16T19:36:38.397Z,6.37
2023-02-16T19:39:20.824Z,6.33
2023-02-16T19:42:00.618Z,6.31
2023-02-16T19:44:47.440Z,6.30
2023-02-16T19:47:25.656Z,6.28
2023-02-16T19:50:05.208Z,6.26
2023-02-16T19:52:57.318Z,6.23
2023-02-16T19:55:35.377Z,6.19
2023-02-16T19:58:15.405Z,6.15
2023-02-16T20:01:02.200Z,6.13
2023-02-16T20:03:43.267Z,6.11
2023-02-16T20:06:40.420Z,6.10
2023-02-16T20:09:24.420Z,6.08
2023-02-16T20:12:16.894Z,6.04
2023-02-16T20:14:56.872Z,6.01
2023-02-16T20:17:37.054Z,5.96
2023-02-16T20:20:18.863Z,5.95
2023-02-16T20:22:57.330Z,5.94
2023-02-16T20:25:36.249Z,5.94
2023-02-16T20:28:14.133Z,5.93
2023-02-16T20:30:53.082Z,5.91
2023-02-16T20:33:35.751Z,5.87
2023-02-16T20:36:14.307Z,5.85
2023-02-16T20:38:54.549Z,5.83
2023-02-16T20:41:36.238Z,5.82
2023-02-16T20:44:15.435Z,5.82
2023-02-16T20:46:56.444Z,5.84
2023-02-16T20:49:35.163Z,5.85
2023-02-16T20:52:13.166Z,5.85
2023-02-16T20:54:50.741Z,5.84
2023-02-16T20:57:31.192Z,5.84
2023-02-16T21:00:14.093Z,5.85
2023-02-16T21:02:57.825Z,5.85
2023-02-16T21:05:35.931Z,5.87
2023-02-16T21:08:23.250Z,5.87
2023-02-16T21:11:00.091Z,5.88
2023-02-16T21:13:40.904Z,5.88
2023-02-16T21:16:16.762Z,5.85
2023-02-16T21:18:54.138Z,5.82
2023-02-16T21:21:34.499Z,5.81
2023-02-16T21:24:12.261Z,5.81
2023-02-16T21:26:49.275Z,5.82
2023-02-16T21:29:32.861Z,5.82
2023-02-16T21:32:08.188Z,5.81
2023-02-16T21:34:44.090Z,5.79
2023-02-16T21:37:19.158Z,5.76
2023-02-16T21:40:11.195Z,5.74
2023-02-16T21:42:46.632Z,5.76
2023-02-16T21:45:21.732Z,5.79
2023-02-16T21:48:12.798Z,5.80
2023-02-16T21:50:46.788Z,5.84
2023-02-16T21:53:21.627Z,5.86
2023-02-16T21:56:13.186Z,5.86
2023-02-16T21:58:48.477Z,5.89
2023-02-16T22:01:27.079Z,5.89
2023-02-16T22:04:02.223Z,5.87
2023-02-16T22:06:39.608Z,5.86
2023-02-16T22:09:15.924Z,5.87
2023-02-16T22:11:50.611Z,5.88
2023-02-16T22:14:24.622Z,5.89
2023-02-16T22:16:58.176Z,5.88
2023-02-16T22:19:31.931Z,5.87
2023-02-16T22:22:05.723Z,5.87
2023-02-16T22:24:39.483Z,5.88
2023-02-16T22:27:13.382Z,5.89
2023-02-16T22:29:47.626Z,5.90
2023-02-16T22:32:31.220Z,5.90
2023-02-16T22:35:16.493Z,5.90
2023-02-16T22:37:50.131Z,5.90
2023-02-16T22:40:27.217Z,5.90
2023-02-16T22:43:00.992Z,5.90
2023-02-16T22:45:35.048Z,5.89
2023-02-16T22:48:09.249Z,5.90
2023-02-16T22:50:43.132Z,5.93
2023-02-16T22:53:17.208Z,5.95
2023-02-16T22:55:51.101Z,5.95
2023-02-16T22:58:25.287Z,5.96
2023-02-16T23:00:59.122Z,5.96
2023-02-16T23:03:32.650Z,5.96
2023-02-16T23:06:15.989Z,5.95
2023-02-16T23:08:53.428Z,5.96
2023-02-16T23:11:29.009Z,5.97
2023-02-16T23:14:02.964Z,6.00
2023-02-16T23:16:36.938Z,6.03
2023-02-16T23:19:13.110Z,6.03
2023-02-16T23:21:46.674Z,6.03
2023-02-16T23:24:22.156Z,6.05
2023-02-16T23:26:56.750Z,6.06
2023-02-16T23:29:31.823Z,6.07
2023-02-16T23:32:06.112Z,6.10
2023-02-16T23:34:39.979Z,6.11
2023-02-16T23:37:13.721Z,6.12
2023-02-16T23:39:48.174Z,6.10
2023-02-16T23:42:22.031Z,6.08
2023-02-16T23:44:56.666Z,6.07
2023-02-16T23:47:30.415Z,6.07
2023-02-16T23:50:04.119Z,6.06
2023-02-16T23:52:37.889Z,6.07
2023-02-16T23:55:11.852Z,6.08
2023-02-16T23:57:45.601Z,6.11
